首页
METAR-TAF:

METAR-TAF

机场 :

諾福克國際機場

諾福克, 弗吉尼亚州, 美国

纬度: 36-54-13N, 经度: 076-11-31W, 海拔: 8米

当前天气观测

该预报发布于1小时和1分钟前的17:51 UTC
风速19节,风向,有时为26节阵风
温度 18°C
湿度 49%
气压 1025 hPa
能見度: 16.1公里
天空无云

METAR: KORF 231751Z 19019G26KT 10SM CLR 18/07 A3026 RMK AO2 PK WND 19029/1734 SLP245 T01780072 10178 20006 58034

时间: 13:52 (18:52 UTC)

预报

该预报发布于1小时和4分钟前的17:48 UTC
预报有效从23日的 18点(UTC)到 24日的 18点(UTC)
风速18节,风向,有时为26节阵风
能見度: 10公里
散云层高于5000英尺
多云层高于8000英尺
从 24日的 0400点(UTC)
风速19节,风向,有时为29节阵风
能見度: 10公里
多云层高于6000英尺
从 24日的 0800点(UTC)
风速18节,风向,有时为27节阵风
能見度: 10公里
阴天层高于4000英尺
从 24日的 1200点(UTC)
风速22节,风向,有时为32节阵风
能見度: 9.7公里
阴天层高于2500英尺
小雨
从 24日的 1400点(UTC)
风速20节,风向,有时为30节阵风
能見度: 3.2公里
阴天层高于900英尺
大雨, 轻雾
从 24日的 1600点(UTC)
风速15节,风向西南,有时为25节阵风
能見度: 6.4公里
阴天层高于1500英尺
雨, 轻雾

TAF: KORF 231748Z 2318/2418 19018G26KT P6SM SCT050 BKN080 FM240400 18019G29KT P6SM BKN060 WS020/19050KT FM240800 18018G27KT P6SM OVC040 WS020/19050KT FM241200 18022G32KT 6SM -RA OVC025 WS020/19055KT FM241400 19020G30KT 2SM +RA BR OVC009 WS020/19055KT FM241600 22015G25KT 4SM RA BR OVC015

超过4000个机场的气象观测和天气预报(METAR&TAF报告)。

可查询的气象台以黄色和红色小点在地图上表示。

将鼠标移到小点上方,可查看气象台名称。

然后点击查看天气观测和预报。

如需切换地图:点击带黑十字的绿色按钮放大地图;点击带横线的绿色按钮缩小地图;或者点击绿色箭头查看邻近地区的地图。


METAR-TAF: